GUCY/CKY METAR and TAF weather

Enter ICAO airport designator
Station Type Date Time Source
GUCY METAR 2018/07/21 10:00 UTC NOAA

GUCY 211000Z 27008KT 8000 -RA BKN013 BKN100 26/25 Q1014 NOSIG


Station Type Date Time Source
GUCY Decoded METAR 2018/07/21 10:00 UTC NOAA

Conakry / Gbessia, Guinea (GUCY) 09-34N 013-37W 26M
Jul 21, 2018 - 06:00 AM EDT / 2018.07.21 1000 UTC
Wind: from the W (270 degrees) at 9 MPH (8 KT):0
Visibility: 4 mile(s):0
Sky conditions: mostly cloudy
Weather: light rain
Temperature: 78 F (26 C)
Dew Point: 77 F (25 C)
Relative Humidity: 94%
Pressure (altimeter): 29.94 in. Hg (1014 hPa)
ob: GUCY 211000Z 27008KT 8000 -RA BKN013 BKN100 26/25 Q1014 NOSIG
cycle: 10

Station Type Date Time Source
GUCY TAF 2018/07/21 06:30 UTC NOAA

TAF TAF GUCY 210500Z 2106/2212 24006KT 9999 SCT015 SCT110
BECMG 2106/2110 6000 -TSRA BKN013 FEW023CB BKN100
TEMPO 2112/2118 17014KT 3000 TSRA BKN012 FEW020CB OVC090


Example: see airport list